This is the latest recevied weather packets stored in our database for station/object W7OG-10. If no packets are shown the sender has not sent any weather packets the latest 10 day(s).
| Time | Temp. | Humidity | Pressure | Rain* | Wind** | Luminosity | Snow |
|---|---|---|---|---|---|---|---|
| 1777385330 | 23.33° C | 100% | 1022.5 hPa | 0 mm | - | - | - |
| 1777383530 | 23.33° C | 100% | 1022.3 hPa | 0 mm | - | - | - |
| 1777382931 | 23.33° C | 100% | 1022.3 hPa | 0 mm | - | - | - |
| 1777380531 | 23.33° C | 100% | 1021.8 hPa | 0 mm | - | - | - |
| 1777373332 | 23.33° C | 100% | 1021.1 hPa | 0 mm | - | - | - |
| 1777361933 | 23.33° C | 100% | 1020.3 hPa | 0 mm | - | - | - |
| 1777360732 | 23.33° C | 100% | 1020.2 hPa | 0 mm | - | - | - |
| 1777358933 | 23.33° C | 100% | 1019.9 hPa | 0 mm | - | - | - |
| 1777353553 | 24.44° C | 98% | 1019.3 hPa | 0 mm | - | - | - |
| 1777351133 | 25° C | 97% | 1019 hPa | 0 mm | - | - | - |
| 1777348733 | 25.56° C | 96% | 1018.6 hPa | 0 mm | - | - | - |
| 1777342133 | 25.56° C | 94% | 1017.6 hPa | 0 mm | - | - | - |
| 1777337934 | 26.11° C | 93% | 1017.3 hPa | 0 mm | - | - | - |
| 1777333135 | 26.11° C | 92% | 1017.3 hPa | 0 mm | - | - | - |
| 1777330734 | 25.56° C | 93% | 1017.4 hPa | 0 mm | - | - | - |
| 1777323552 | 25° C | 97% | 1017.3 hPa | 0 mm | - | - | - |
| 1777322336 | 25° C | 97% | 1017.3 hPa | 0 mm | - | - | - |
| 1777321136 | 24.44° C | 97% | 1017.3 hPa | 0 mm | - | - | - |
| 1777318736 | 24.44° C | 98% | 1017.3 hPa | 0 mm | - | - | - |
| 1777312736 | 23.89° C | 100% | 1017 hPa | 0 mm | - | - | - |
| 1777310936 | 23.89° C | 100% | 1016.8 hPa | 0 mm | - | - | - |
| 1777310336 | 23.89° C | 100% | 1016.8 hPa | 0 mm | - | - | - |
| 1777306136 | 23.89° C | 100% | 1016.4 hPa | 0 mm | - | - | - |
| 1777304936 | 23.89° C | 100% | 1016.2 hPa | 0 mm | - | - | - |
| 1777302537 | 23.89° C | 100% | 1015.8 hPa | 0 mm | - | - | - |
* Rain latest hour (hover to see other rain measurements)
** Current wind speed in m/s (hover to see current wind gust speed)